MSC Ines — 3EFZ3 — position and weather

sailwx.info

Track history (hours):
 
Tides and Currents Weather Stations Pressure Air Temp Water Temp Dewpoint Dewpoint Depression Visibility Wind Speed Wind Dir Waves Ship Positions

MSC Ines

Last reported at 2016-Dec-06 17:14 UTC. Time now 2016-Dec-09 02:00 UTC.
Position N 02°05' E 102°06'.

Length 349 m; draft 14 m.

Type: Ship (hazmat cat A). MMSI: 356112000.

Date/timePositionNaut miles runAvg speedWind from/ knotsBaromVisibWave heightAir tempDewpointWater temp
2016-Dec-06 17:14N 02°05' E 102°06'1213.0
2016-Dec-06 16:20N 01°58' E 102°14'1013.1
2016-Dec-06 15:33N 01°52' E 102°23'1413.9
2016-Dec-06 14:32N 01°46' E 102°36'1414.5
2016-Dec-06 13:33N 01°40' E 102°49'6014.9
2016-Dec-06 09:32N 01°14' E 103°43'4 4.0
2016-Dec-06 08:30N 01°16' E 103°46'0 0.0
2016-Dec-06 07:33N 01°16' E 103°46'0 0.0
2016-Dec-06 05:33N 01°16' E 103°46'0 0.0
2016-Dec-06 04:30N 01°16' E 103°46'0 0.0
2016-Dec-06 03:30N 01°16' E 103°46'0 0.0
2016-Dec-06 02:33N 01°16' E 103°46'0 0.0
2016-Dec-06 01:33N 01°16' E 103°46'0 0.0
2016-Dec-06 00:30N 01°16' E 103°46'0 0.0
2016-Dec-05 23:33N 01°16' E 103°46'0 0.0
2016-Dec-05 22:27N 01°16' E 103°46'0 0.0
2016-Dec-05 21:27N 01°16' E 103°46'0 0.0
2016-Dec-05 20:30N 01°16' E 103°46'0 0.0
2016-Dec-05 19:33N 01°16' E 103°46'0 0.0
2016-Dec-05 18:33N 01°16' E 103°46'0 0.0
2016-Dec-05 17:27N 01°16' E 103°46'0 0.0
2016-Dec-05 16:30N 01°16' E 103°46'0 0.0
2016-Dec-05 15:18N 01°16' E 103°46'0 0.0
2016-Dec-05 14:33N 01°16' E 103°46'0 0.0
2016-Dec-05 13:33N 01°16' E 103°46'0 0.0
2016-Dec-05 12:33N 01°16' E 103°46'0 0.0
2016-Dec-05 11:33N 01°16' E 103°46'0 0.0
2016-Dec-05 10:33N 01°16' E 103°46'0 0.0
2016-Dec-05 09:33N 01°16' E 103°46'0 0.0
2016-Dec-05 08:33N 01°16' E 103°46'0 0.0
2016-Dec-05 07:33N 01°16' E 103°46'0 0.0
2016-Dec-05 06:33N 01°16' E 103°46'0 0.0
2016-Dec-05 05:33N 01°16' E 103°46'0 0.0
2016-Dec-05 04:24N 01°16' E 103°46'0 0.0
2016-Dec-05 03:33N 01°16' E 103°46'0 0.0
2016-Dec-05 02:33N 01°16' E 103°46'0 0.0
2016-Dec-05 01:30N 01°16' E 103°46'0 0.0
2016-Dec-05 00:33N 01°16' E 103°46'4 4.3
2016-Dec-04 23:32N 01°13' E 103°49'9 9.0
2016-Dec-04 22:32N 01°15' E 103°58'  
2016-Dec-01 02:20N 22°19' E 114°05'12 2.9
2016-Nov-30 22:16N 22°23' E 113°54'4 5.5
2016-Nov-30 21:28N 22°28' E 113°53'0 0.1
2016-Nov-30 20:28N 22°28' E 113°53'0 0.0
2016-Nov-30 19:28N 22°28' E 113°53'0 0.0
2016-Nov-30 18:28N 22°28' E 113°53'0 0.0
2016-Nov-30 17:28N 22°28' E 113°53'0 0.0
2016-Nov-30 16:26N 22°28' E 113°53'0 0.0
2016-Nov-30 15:28N 22°28' E 113°53'0 0.0
2016-Nov-30 14:10N 22°28' E 113°53'0 0.0
2016-Nov-30 13:28N 22°28' E 113°53'0 0.0
2016-Nov-30 12:28N 22°28' E 113°53'0 0.0
2016-Nov-30 09:10N 22°28' E 113°53'0 0.0
2016-Nov-30 08:22N 22°28' E 113°53'0 0.0
2016-Nov-30 05:23N 22°28' E 113°53'0 0.0
2016-Nov-30 03:11N 22°28' E 113°53'0 0.0
2016-Nov-30 02:16N 22°28' E 113°53'0 0.0
2016-Nov-30 01:22N 22°28' E 113°53'0 0.5
2016-Nov-30 00:33N 22°28' E 113°52'11 0.4
2016-Nov-28 18:12N 22°35' E 113°43'1314.3
2016-Nov-28 17:17N 22°22' E 113°47'1114.5
2016-Nov-28 16:33N 22°12' E 113°50'24414.2
2016-Nov-27 23:24N 23°37' E 117°58'2613.9
2016-Nov-27 21:33N 23°53' E 118°20'1514.3
2016-Nov-27 20:32N 24°02' E 118°33'4515.0
2016-Nov-27 17:34N 24°31' E 119°11'33415.2
2016-Nov-26 19:33N 29°15' E 122°27'1616.6
2016-Nov-26 18:33N 29°32' E 122°30'1615.4
2016-Nov-26 17:32N 29°45' E 122°19'  
Track history (hours):
 
Tides and Currents Weather Stations Pressure Air Temp Water Temp Dewpoint Dewpoint Depression Visibility Wind Speed Wind Dir Waves Ship Positions

MSC Ines

Last reported at 2016-Dec-06 17:14 UTC. Time now 2016-Dec-09 02:00 UTC.
Position N 02°05' E 102°06'.

Length 349 m; draft 14 m.

Type: Ship (hazmat cat A). MMSI: 356112000.

Date/timePositionNaut miles runAvg speedWind from/ knotsBaromVisibWave heightAir tempDewpointWater temp
2016-Dec-06 17:14N 02°05' E 102°06'1213.0
2016-Dec-06 16:20N 01°58' E 102°14'1013.1
2016-Dec-06 15:33N 01°52' E 102°23'1413.9
2016-Dec-06 14:32N 01°46' E 102°36'1414.5
2016-Dec-06 13:33N 01°40' E 102°49'6014.9
2016-Dec-06 09:32N 01°14' E 103°43'4 4.0
2016-Dec-06 08:30N 01°16' E 103°46'0 0.0
2016-Dec-06 07:33N 01°16' E 103°46'0 0.0
2016-Dec-06 05:33N 01°16' E 103°46'0 0.0
2016-Dec-06 04:30N 01°16' E 103°46'0 0.0
2016-Dec-06 03:30N 01°16' E 103°46'0 0.0
2016-Dec-06 02:33N 01°16' E 103°46'0 0.0
2016-Dec-06 01:33N 01°16' E 103°46'0 0.0
2016-Dec-06 00:30N 01°16' E 103°46'0 0.0
2016-Dec-05 23:33N 01°16' E 103°46'0 0.0
2016-Dec-05 22:27N 01°16' E 103°46'0 0.0
2016-Dec-05 21:27N 01°16' E 103°46'0 0.0
2016-Dec-05 20:30N 01°16' E 103°46'0 0.0
2016-Dec-05 19:33N 01°16' E 103°46'0 0.0
2016-Dec-05 18:33N 01°16' E 103°46'0 0.0
2016-Dec-05 17:27N 01°16' E 103°46'0 0.0
2016-Dec-05 16:30N 01°16' E 103°46'0 0.0
2016-Dec-05 15:18N 01°16' E 103°46'0 0.0
2016-Dec-05 14:33N 01°16' E 103°46'0 0.0
2016-Dec-05 13:33N 01°16' E 103°46'0 0.0
2016-Dec-05 12:33N 01°16' E 103°46'0 0.0
2016-Dec-05 11:33N 01°16' E 103°46'0 0.0
2016-Dec-05 10:33N 01°16' E 103°46'0 0.0
2016-Dec-05 09:33N 01°16' E 103°46'0 0.0
2016-Dec-05 08:33N 01°16' E 103°46'0 0.0
2016-Dec-05 07:33N 01°16' E 103°46'0 0.0
2016-Dec-05 06:33N 01°16' E 103°46'0 0.0
2016-Dec-05 05:33N 01°16' E 103°46'0 0.0
2016-Dec-05 04:24N 01°16' E 103°46'0 0.0
2016-Dec-05 03:33N 01°16' E 103°46'0 0.0
2016-Dec-05 02:33N 01°16' E 103°46'0 0.0
2016-Dec-05 01:30N 01°16' E 103°46'0 0.0
2016-Dec-05 00:33N 01°16' E 103°46'4 4.3
2016-Dec-04 23:32N 01°13' E 103°49'9 9.0
2016-Dec-04 22:32N 01°15' E 103°58'  
2016-Dec-01 02:20N 22°19' E 114°05'12 2.9
2016-Nov-30 22:16N 22°23' E 113°54'4 5.5
2016-Nov-30 21:28N 22°28' E 113°53'0 0.1
2016-Nov-30 20:28N 22°28' E 113°53'0 0.0
2016-Nov-30 19:28N 22°28' E 113°53'0 0.0
2016-Nov-30 18:28N 22°28' E 113°53'0 0.0
2016-Nov-30 17:28N 22°28' E 113°53'0 0.0
2016-Nov-30 16:26N 22°28' E 113°53'0 0.0
2016-Nov-30 15:28N 22°28' E 113°53'0 0.0
2016-Nov-30 14:10N 22°28' E 113°53'0 0.0
2016-Nov-30 13:28N 22°28' E 113°53'0 0.0
2016-Nov-30 12:28N 22°28' E 113°53'0 0.0
2016-Nov-30 09:10N 22°28' E 113°53'0 0.0
2016-Nov-30 08:22N 22°28' E 113°53'0 0.0
2016-Nov-30 05:23N 22°28' E 113°53'0 0.0
2016-Nov-30 03:11N 22°28' E 113°53'0 0.0
2016-Nov-30 02:16N 22°28' E 113°53'0 0.0
2016-Nov-30 01:22N 22°28' E 113°53'0 0.5
2016-Nov-30 00:33N 22°28' E 113°52'11 0.4
2016-Nov-28 18:12N 22°35' E 113°43'1314.3
2016-Nov-28 17:17N 22°22' E 113°47'1114.5
2016-Nov-28 16:33N 22°12' E 113°50'24414.2
2016-Nov-27 23:24N 23°37' E 117°58'2613.9
2016-Nov-27 21:33N 23°53' E 118°20'1514.3
2016-Nov-27 20:32N 24°02' E 118°33'4515.0
2016-Nov-27 17:34N 24°31' E 119°11'33415.2
2016-Nov-26 19:33N 29°15' E 122°27'1616.6
2016-Nov-26 18:33N 29°32' E 122°30'1615.4
2016-Nov-26 17:32N 29°45' E 122°19'  

Dump ship's entire track history